Aviation Digital Data Service (ADDS)

Output produced by TAFs form (0837 UTC 22 February 2017)
found at http://aviationweather.gov/adds/tafs/
 
KRIL 220542Z 2206/2306 VRB04KT P6SM BKN200 
     FM220800 28010G15KT P6SM BKN150 WS020/24040KT 
     FM221500 25005KT P6SM VCSH OVC050 
     FM221900 26010G18KT P6SM -SHRA OVC050 
     FM230000 26010G20KT P6SM OVC100